createdAt,value
2023-04-25T00:00:30.453Z,4.65
2023-04-25T00:02:33.776Z,6.50
2023-04-25T00:04:36.104Z,3.55
2023-04-25T00:06:38.264Z,5.95
2023-04-25T00:08:39.914Z,4.85
2023-04-25T00:10:41.708Z,5.90
2023-04-25T00:12:43.434Z,5.63
2023-04-25T00:14:46.512Z,4.05
2023-04-25T00:16:49.412Z,4.10
2023-04-25T00:18:54.780Z,4.97
2023-04-25T00:20:56.984Z,8.95
2023-04-25T00:22:58.665Z,4.32
2023-04-25T00:25:01.384Z,3.72
2023-04-25T00:27:03.000Z,3.90
2023-04-25T00:29:04.685Z,4.38
2023-04-25T00:31:06.287Z,5.20
2023-04-25T00:33:08.325Z,3.65
2023-04-25T00:35:10.764Z,3.42
2023-04-25T00:37:12.749Z,4.82
2023-04-25T00:39:14.391Z,5.43
2023-04-25T00:41:16.560Z,6.18
2023-04-25T00:43:18.151Z,3.80
2023-04-25T00:45:20.137Z,4.43
2023-04-25T00:47:21.985Z,4.88
2023-04-25T00:49:23.599Z,5.32
2023-04-25T00:51:26.131Z,6.13
2023-04-25T00:53:29.206Z,4.60
2023-04-25T00:55:32.532Z,5.35
2023-04-25T00:57:34.581Z,5.28
2023-04-25T00:59:37.559Z,5.55
2023-04-25T01:01:40.175Z,4.83
2023-04-25T01:03:42.241Z,5.03
2023-04-25T01:05:44.466Z,5.95
2023-04-25T01:07:46.512Z,6.43
2023-04-25T01:09:48.244Z,8.13
2023-04-25T01:11:50.515Z,7.38
2023-04-25T01:13:52.426Z,7.30
2023-04-25T01:15:54.307Z,11.27
2023-04-25T01:17:56.506Z,7.72
2023-04-25T01:19:58.260Z,9.50
2023-04-25T01:21:59.983Z,7.65
2023-04-25T01:24:01.971Z,7.50
2023-04-25T01:26:03.873Z,7.57
2023-04-25T01:28:05.701Z,7.00
2023-04-25T01:30:08.114Z,13.23
2023-04-25T01:32:10.154Z,8.30
2023-04-25T01:34:12.648Z,8.20
2023-04-25T01:36:14.581Z,8.00
2023-04-25T01:38:16.209Z,9.38
2023-04-25T01:40:19.805Z,9.88
2023-04-25T01:42:21.416Z,8.27
2023-04-25T01:44:23.066Z,8.32
2023-04-25T01:46:24.902Z,7.63
2023-04-25T01:48:26.638Z,9.48
2023-04-25T01:50:28.231Z,8.43
2023-04-25T01:52:29.863Z,9.60
2023-04-25T01:54:31.547Z,9.38
2023-04-25T01:56:34.156Z,11.18
2023-04-25T01:58:35.892Z,8.82
2023-04-25T02:00:41.927Z,8.13
2023-04-25T02:02:43.698Z,9.02
2023-04-25T02:04:45.612Z,8.80
2023-04-25T02:06:47.671Z,6.95
2023-04-25T02:08:49.378Z,6.75
2023-04-25T02:10:51.039Z,7.63
2023-04-25T02:12:52.566Z,7.43
2023-04-25T02:14:54.301Z,9.35
2023-04-25T02:16:56.070Z,6.97
2023-04-25T02:18:57.753Z,9.48
2023-04-25T02:21:00.491Z,8.23
2023-04-25T02:23:02.134Z,7.97
2023-04-25T02:25:05.668Z,8.95
2023-04-25T02:27:07.315Z,6.20
2023-04-25T02:29:08.935Z,7.45
2023-04-25T02:31:10.605Z,6.07
2023-04-25T02:33:12.253Z,5.97
2023-04-25T02:35:14.067Z,6.47
2023-04-25T02:37:15.739Z,6.70
2023-04-25T02:39:17.972Z,6.75
2023-04-25T02:41:19.577Z,6.93
2023-04-25T02:43:21.779Z,6.47
2023-04-25T02:45:23.493Z,14.30
2023-04-25T02:47:25.455Z,26.48
2023-04-25T02:49:27.115Z,14.10
2023-04-25T02:51:28.745Z,20.85
2023-04-25T02:53:30.386Z,10.07
2023-04-25T02:55:32.014Z,7.40
2023-04-25T02:57:33.662Z,6.53
2023-04-25T02:59:35.493Z,7.10
2023-04-25T03:01:37.094Z,7.15
2023-04-25T03:03:38.796Z,6.78
2023-04-25T03:05:40.404Z,9.27
2023-04-25T03:07:42.101Z,8.57
2023-04-25T03:09:43.722Z,7.03
2023-04-25T03:11:45.699Z,7.78
2023-04-25T03:13:47.371Z,8.27
2023-04-25T03:15:48.948Z,8.52
2023-04-25T03:17:50.626Z,9.82
2023-04-25T03:19:52.227Z,8.55
2023-04-25T03:21:54.735Z,6.43
2023-04-25T03:23:56.300Z,7.68
2023-04-25T03:25:57.901Z,7.32
2023-04-25T03:27:59.517Z,7.70
2023-04-25T03:30:01.120Z,10.15
2023-04-25T03:32:02.830Z,7.25
2023-04-25T03:34:04.554Z,6.95
2023-04-25T03:36:06.652Z,7.63
2023-04-25T03:38:08.229Z,7.70
2023-04-25T03:40:10.204Z,7.28
2023-04-25T03:42:11.916Z,7.80
2023-04-25T03:44:13.544Z,8.57
2023-04-25T03:46:15.272Z,7.75
2023-04-25T03:48:17.354Z,8.23
2023-04-25T03:50:19.078Z,8.93
2023-04-25T03:52:20.882Z,8.80
2023-04-25T03:54:22.471Z,7.50
2023-04-25T03:56:24.066Z,7.60
2023-04-25T03:58:25.790Z,7.50
2023-04-25T04:00:27.419Z,9.02
2023-04-25T04:02:29.173Z,9.60
2023-04-25T04:04:31.509Z,6.53
2023-04-25T04:06:34.190Z,8.32
2023-04-25T04:08:36.268Z,6.50
2023-04-25T04:10:37.831Z,7.18
2023-04-25T04:12:39.837Z,5.88
2023-04-25T04:14:41.512Z,7.07
2023-04-25T04:16:43.138Z,7.97
2023-04-25T04:18:44.794Z,6.43
2023-04-25T04:20:46.416Z,7.90
2023-04-25T04:22:48.014Z,8.68
2023-04-25T04:24:51.055Z,11.45
2023-04-25T04:26:53.159Z,8.15
2023-04-25T04:28:55.433Z,7.78
2023-04-25T04:30:57.096Z,7.07
2023-04-25T04:32:59.095Z,6.95
2023-04-25T04:35:00.731Z,7.28
2023-04-25T04:37:02.579Z,8.15
2023-04-25T04:39:06.598Z,8.13
2023-04-25T04:41:08.493Z,7.60
2023-04-25T04:43:11.753Z,7.00
2023-04-25T04:45:14.029Z,7.10
2023-04-25T04:47:15.603Z,8.15
2023-04-25T04:49:17.252Z,8.25
2023-04-25T04:51:18.865Z,8.23
2023-04-25T04:53:20.521Z,8.07
2023-04-25T04:55:22.082Z,9.43
2023-04-25T04:57:23.629Z,10.43
2023-04-25T04:59:25.320Z,8.43
2023-04-25T05:01:27.547Z,8.80
2023-04-25T05:03:29.640Z,9.25
2023-04-25T05:05:31.392Z,9.75
2023-04-25T05:07:33.056Z,16.67
2023-04-25T05:09:34.642Z,8.30
2023-04-25T05:11:36.309Z,9.27
2023-04-25T05:13:38.181Z,9.77
2023-04-25T05:15:39.786Z,8.10
2023-04-25T05:17:41.441Z,9.40
2023-04-25T05:19:43.096Z,9.70
2023-04-25T05:21:44.796Z,10.10
2023-04-25T05:23:46.402Z,10.60
2023-04-25T05:25:48.021Z,10.27
2023-04-25T05:27:49.701Z,11.45
2023-04-25T05:29:51.334Z,13.48
2023-04-25T05:31:52.949Z,10.48
2023-04-25T05:33:54.614Z,12.23
2023-04-25T05:35:56.183Z,18.02
2023-04-25T05:37:57.794Z,16.00
2023-04-25T05:39:59.428Z,22.27
2023-04-25T05:42:02.504Z,15.43
2023-04-25T05:44:04.171Z,14.90
2023-04-25T05:46:05.938Z,14.50
2023-04-25T05:48:07.701Z,16.35
2023-04-25T05:50:09.859Z,16.17
2023-04-25T05:52:11.534Z,14.73
2023-04-25T05:54:13.191Z,15.73
2023-04-25T05:56:14.877Z,14.65
2023-04-25T05:58:16.616Z,12.02
2023-04-25T06:00:19.858Z,15.48
2023-04-25T06:02:22.641Z,15.10
2023-04-25T06:04:25.212Z,11.50
2023-04-25T06:06:27.908Z,12.23
2023-04-25T06:08:29.493Z,10.82
2023-04-25T06:10:31.156Z,11.40
2023-04-25T06:12:34.109Z,13.48
2023-04-25T06:14:36.016Z,17.13
2023-04-25T06:16:37.710Z,12.23
2023-04-25T06:18:39.322Z,14.10
2023-04-25T06:20:41.000Z,12.05
2023-04-25T06:22:42.749Z,14.52
2023-04-25T06:24:44.317Z,12.63
2023-04-25T06:26:45.970Z,11.75
2023-04-25T06:28:47.609Z,16.35
2023-04-25T06:30:49.479Z,15.45
2023-04-25T06:32:51.150Z,12.73
2023-04-25T06:34:52.764Z,11.98
2023-04-25T06:36:54.425Z,13.40
2023-04-25T06:38:56.177Z,7.97
2023-04-25T06:40:57.918Z,9.82
2023-04-25T06:42:59.630Z,10.30
2023-04-25T06:45:01.416Z,9.75
2023-04-25T06:47:03.114Z,9.05
2023-04-25T06:49:04.773Z,8.95
2023-04-25T06:51:06.430Z,9.95
2023-04-25T06:53:09.729Z,8.55
2023-04-25T06:55:11.416Z,10.82
2023-04-25T06:57:13.095Z,7.18
2023-04-25T06:59:14.671Z,8.82
2023-04-25T07:01:16.653Z,7.85
2023-04-25T07:03:18.685Z,8.05
2023-04-25T07:05:20.442Z,8.40
2023-04-25T07:07:22.063Z,9.27
2023-04-25T07:09:23.773Z,9.75
2023-04-25T07:11:25.549Z,7.10
2023-04-25T07:13:27.175Z,11.18
2023-04-25T07:15:28.789Z,11.20
2023-04-25T07:17:30.439Z,11.68
2023-04-25T07:19:32.088Z,11.68
2023-04-25T07:21:33.940Z,12.35
2023-04-25T07:23:35.679Z,8.52
2023-04-25T07:25:37.483Z,8.30
2023-04-25T07:27:40.127Z,13.02
2023-04-25T07:29:41.778Z,9.85
2023-04-25T07:31:43.487Z,11.50
2023-04-25T07:33:48.896Z,12.90
2023-04-25T07:35:51.205Z,11.95
2023-04-25T07:37:52.895Z,11.18
2023-04-25T07:39:54.553Z,10.77
2023-04-25T07:41:56.176Z,12.80
2023-04-25T07:43:57.785Z,12.73
2023-04-25T07:45:59.516Z,12.07
2023-04-25T07:48:01.382Z,9.10
2023-04-25T07:50:04.587Z,9.25
2023-04-25T07:52:07.265Z,16.35
2023-04-25T07:54:09.442Z,8.70
2023-04-25T07:56:11.164Z,10.85
2023-04-25T07:58:12.856Z,12.98
2023-04-25T08:00:16.063Z,19.75
2023-04-25T08:02:17.754Z,17.05
2023-04-25T08:04:19.815Z,10.38
2023-04-25T08:06:21.754Z,15.05
2023-04-25T08:08:23.508Z,17.88
2023-04-25T08:10:25.119Z,10.57
2023-04-25T08:12:26.892Z,10.55
2023-04-25T08:14:30.032Z,11.50
2023-04-25T08:16:32.108Z,8.35
2023-04-25T08:18:33.810Z,12.50
2023-04-25T08:20:35.517Z,10.02
2023-04-25T08:22:37.150Z,11.77
2023-04-25T08:24:39.671Z,8.95
2023-04-25T08:26:42.313Z,8.23
2023-04-25T08:28:43.912Z,9.48
2023-04-25T08:30:45.641Z,7.60
2023-04-25T08:32:47.328Z,13.77
2023-04-25T08:34:48.989Z,9.68
2023-04-25T08:36:51.764Z,11.95
2023-04-25T08:38:55.306Z,5.93
2023-04-25T08:40:57.969Z,9.60
2023-04-25T08:43:00.035Z,9.57
2023-04-25T08:45:06.637Z,14.98
2023-04-25T08:47:08.925Z,11.15
2023-04-25T08:49:10.715Z,8.00
2023-04-25T08:51:23.659Z,7.35
2023-04-25T08:53:30.926Z,7.35
2023-04-25T08:55:32.996Z,6.38
2023-04-25T08:57:34.789Z,8.68
2023-04-25T08:59:39.246Z,6.07
2023-04-25T09:01:41.350Z,4.93
2023-04-25T09:03:43.283Z,7.18
2023-04-25T09:05:45.390Z,8.85
2023-04-25T09:07:48.472Z,11.85
2023-04-25T09:09:51.485Z,5.90
2023-04-25T09:11:55.451Z,6.45
2023-04-25T09:14:13.914Z,4.22
2023-04-25T09:16:18.543Z,7.97
2023-04-25T09:18:31.430Z,8.18
2023-04-25T09:20:35.303Z,7.38
2023-04-25T09:22:39.815Z,6.53
2023-04-25T09:24:46.913Z,5.97
2023-04-25T09:26:48.881Z,14.82
2023-04-25T09:28:50.497Z,7.30
2023-04-25T09:30:56.187Z,6.95
2023-04-25T09:32:59.287Z,8.95
2023-04-25T09:35:01.108Z,8.75
2023-04-25T09:37:03.111Z,6.57
2023-04-25T09:39:16.126Z,9.35
2023-04-25T09:41:24.242Z,5.40
2023-04-25T09:43:26.544Z,6.03
2023-04-25T09:45:32.301Z,6.90
2023-04-25T09:47:38.975Z,4.43
2023-04-25T09:49:44.710Z,4.05
2023-04-25T09:51:58.281Z,2.92
2023-04-25T09:53:59.894Z,1.45
2023-04-25T09:56:01.742Z,4.00
2023-04-25T09:58:08.782Z,1.85
2023-04-25T10:00:13.794Z,7.47
2023-04-25T10:02:21.507Z,3.90
2023-04-25T10:04:27.324Z,7.30
2023-04-25T10:06:29.997Z,3.67
2023-04-25T10:08:37.258Z,6.00
2023-04-25T10:10:41.413Z,5.20
2023-04-25T10:12:44.559Z,3.80
2023-04-25T10:14:47.001Z,5.97
2023-04-25T10:16:49.406Z,1.55
2023-04-25T10:18:51.647Z,2.80
2023-04-25T10:20:57.778Z,2.10
2023-04-25T10:23:06.346Z,2.30
2023-04-25T10:25:09.415Z,1.65
2023-04-25T10:27:12.099Z,2.03
2023-04-25T10:29:13.645Z,3.75
2023-04-25T10:31:17.628Z,2.25
2023-04-25T10:33:21.988Z,4.97
2023-04-25T10:35:28.625Z,2.38
2023-04-25T10:37:31.438Z,1.30
2023-04-25T10:39:33.833Z,1.53
2023-04-25T10:41:49.348Z,3.15
2023-04-25T10:43:51.858Z,3.85
2023-04-25T10:45:54.158Z,3.73
2023-04-25T10:47:55.979Z,3.33
2023-04-25T10:50:06.206Z,3.50
2023-04-25T10:52:26.820Z,4.38
2023-04-25T10:54:28.456Z,6.30
2023-04-25T10:56:42.896Z,3.90
2023-04-25T10:58:49.461Z,1.60
2023-04-25T11:00:57.459Z,1.02
2023-04-25T11:03:00.701Z,5.63
2023-04-25T11:05:02.499Z,1.88
2023-04-25T11:07:07.951Z,2.17
2023-04-25T11:09:14.335Z,2.70
2023-04-25T11:11:17.364Z,3.03
2023-04-25T11:13:21.664Z,2.45
2023-04-25T11:15:23.288Z,1.77
2023-04-25T11:17:26.538Z,1.50
2023-04-25T11:19:29.291Z,3.00
2023-04-25T11:21:32.940Z,1.95
2023-04-25T11:23:34.609Z,4.20
2023-04-25T11:25:38.512Z,4.10
2023-04-25T11:27:52.361Z,8.02
2023-04-25T11:29:53.982Z,3.30
2023-04-25T11:31:59.498Z,4.28
2023-04-25T11:34:01.395Z,5.25
2023-04-25T11:36:03.107Z,4.32
2023-04-25T11:38:05.280Z,3.90
2023-04-25T11:40:07.894Z,5.22
2023-04-25T11:42:11.148Z,4.60
2023-04-25T11:44:19.470Z,5.47
2023-04-25T11:46:21.474Z,3.35
2023-04-25T11:48:25.957Z,3.00
2023-04-25T11:50:29.282Z,2.47
2023-04-25T11:52:41.303Z,5.03
2023-04-25T11:54:45.751Z,2.65
2023-04-25T11:56:47.445Z,3.08
2023-04-25T11:58:56.650Z,1.27
2023-04-25T12:01:00.492Z,1.20
2023-04-25T12:03:03.999Z,2.97
2023-04-25T12:05:22.156Z,1.92
2023-04-25T12:07:31.584Z,4.65
2023-04-25T12:09:34.372Z,1.38
2023-04-25T12:12:11.271Z,1.85
2023-04-25T12:14:14.000Z,2.30
2023-04-25T12:16:16.087Z,2.42
2023-04-25T12:18:22.711Z,2.05
2023-04-25T12:20:27.545Z,2.65
2023-04-25T12:22:29.539Z,3.65
2023-04-25T12:24:36.930Z,1.60
2023-04-25T12:27:09.348Z,2.78
2023-04-25T12:29:26.068Z,3.10
2023-04-25T12:31:30.187Z,2.47
2023-04-25T12:33:33.090Z,3.33
2023-04-25T12:35:34.703Z,3.80
2023-04-25T12:37:36.409Z,2.63
2023-04-25T12:39:38.146Z,5.43
2023-04-25T12:41:39.719Z,3.70
2023-04-25T12:43:41.350Z,2.72
2023-04-25T12:45:42.923Z,2.97
2023-04-25T12:47:44.816Z,2.60
2023-04-25T12:49:46.549Z,4.88
2023-04-25T12:51:48.622Z,4.85
2023-04-25T12:53:50.417Z,3.15
2023-04-25T12:55:52.402Z,2.90
2023-04-25T12:57:54.008Z,3.25
2023-04-25T12:59:55.627Z,4.80
2023-04-25T13:01:57.239Z,4.72
2023-04-25T13:03:59.017Z,8.27
2023-04-25T13:06:00.719Z,4.80
2023-04-25T13:08:02.387Z,3.85
2023-04-25T13:10:04.224Z,6.55
2023-04-25T13:12:06.184Z,4.18
2023-04-25T13:14:07.729Z,3.53
2023-04-25T13:16:10.224Z,6.25
2023-04-25T13:18:12.082Z,5.47
2023-04-25T13:20:14.803Z,8.00
2023-04-25T13:22:17.942Z,3.78
2023-04-25T13:24:19.683Z,4.05
2023-04-25T13:26:21.382Z,3.35
2023-04-25T13:28:23.310Z,2.65
2023-04-25T13:30:25.110Z,4.13
2023-04-25T13:32:26.861Z,5.25
2023-04-25T13:34:30.150Z,3.47
2023-04-25T13:36:32.964Z,2.88
2023-04-25T13:38:34.571Z,5.22
2023-04-25T13:40:36.418Z,5.40
2023-04-25T13:42:39.033Z,5.00
2023-04-25T13:44:40.861Z,3.75
2023-04-25T13:46:46.908Z,3.30
2023-04-25T13:48:52.744Z,4.93
2023-04-25T13:50:55.822Z,8.93
2023-04-25T13:52:57.341Z,4.25
2023-04-25T13:54:59.294Z,2.63
2023-04-25T13:57:01.116Z,2.20
2023-04-25T13:59:02.761Z,2.47
2023-04-25T14:01:04.589Z,3.65
2023-04-25T14:03:08.977Z,2.13
2023-04-25T14:05:11.193Z,2.35
2023-04-25T14:07:12.950Z,4.60
2023-04-25T14:09:14.589Z,4.75
2023-04-25T14:11:16.225Z,3.75
2023-04-25T14:13:17.844Z,2.63
2023-04-25T14:15:19.493Z,2.55
2023-04-25T14:17:21.282Z,3.28
2023-04-25T14:19:23.501Z,2.70
2023-04-25T14:21:25.232Z,2.10
2023-04-25T14:23:26.865Z,2.38
2023-04-25T14:25:28.820Z,2.30
2023-04-25T14:27:30.417Z,1.92
2023-04-25T14:29:32.613Z,2.17
2023-04-25T14:31:34.808Z,3.33
2023-04-25T14:33:36.569Z,3.05
2023-04-25T14:35:38.652Z,1.90
2023-04-25T14:37:40.525Z,2.28
2023-04-25T14:39:42.135Z,2.67
2023-04-25T14:41:43.841Z,2.10
2023-04-25T14:43:46.179Z,2.63
2023-04-25T14:45:47.788Z,2.30
2023-04-25T14:47:49.676Z,4.15
2023-04-25T14:49:55.163Z,4.63
2023-04-25T14:51:56.996Z,4.05
2023-04-25T14:53:59.141Z,6.38
2023-04-25T14:56:00.789Z,3.00
2023-04-25T14:58:03.057Z,4.30
2023-04-25T15:00:08.056Z,4.13
2023-04-25T15:02:09.764Z,2.67
2023-04-25T15:04:13.626Z,2.85
2023-04-25T15:06:15.501Z,4.18
2023-04-25T15:08:17.160Z,3.65
2023-04-25T15:10:19.742Z,4.05
2023-04-25T15:12:21.595Z,4.00
2023-04-25T15:14:23.226Z,4.18
2023-04-25T15:16:24.838Z,4.30
2023-04-25T15:18:26.658Z,3.65
2023-04-25T15:20:28.669Z,4.45
2023-04-25T15:22:30.368Z,4.15
2023-04-25T15:24:32.067Z,4.07
2023-04-25T15:26:33.698Z,3.58
2023-04-25T15:28:35.282Z,7.18
2023-04-25T15:30:36.883Z,4.05
2023-04-25T15:32:38.762Z,6.03
2023-04-25T15:34:40.438Z,6.38
2023-04-25T15:36:42.001Z,6.63
2023-04-25T15:38:43.627Z,7.05
2023-04-25T15:40:45.269Z,5.65
2023-04-25T15:42:55.247Z,5.18
2023-04-25T15:44:56.870Z,7.75
2023-04-25T15:46:58.460Z,7.40
2023-04-25T15:49:00.152Z,5.22
2023-04-25T15:51:02.043Z,4.72
2023-04-25T15:53:05.041Z,5.05
2023-04-25T15:55:08.840Z,2.85
2023-04-25T15:57:13.097Z,4.72
2023-04-25T15:59:14.757Z,3.58
2023-04-25T16:01:16.610Z,2.90
2023-04-25T16:03:18.421Z,3.05
2023-04-25T16:05:20.596Z,6.00
2023-04-25T16:07:23.133Z,3.35
2023-04-25T16:09:24.832Z,9.73
2023-04-25T16:11:26.601Z,6.30
2023-04-25T16:13:29.983Z,5.95
2023-04-25T16:15:34.586Z,6.47
2023-04-25T16:17:36.976Z,5.40
2023-04-25T16:19:38.856Z,6.40
2023-04-25T16:21:40.398Z,4.40
2023-04-25T16:23:42.425Z,7.38
2023-04-25T16:25:44.581Z,2.88
2023-04-25T16:27:46.319Z,4.28
2023-04-25T16:29:49.674Z,2.63
2023-04-25T16:31:51.417Z,2.92
2023-04-25T16:33:53.342Z,5.53
2023-04-25T16:35:55.198Z,4.18
2023-04-25T16:37:57.426Z,5.50
2023-04-25T16:39:59.029Z,8.93
2023-04-25T16:42:01.512Z,9.15
2023-04-25T16:46:08.714Z,7.70
2023-04-25T16:48:10.383Z,5.78
2023-04-25T16:50:14.528Z,6.45
2023-04-25T16:52:16.401Z,5.72
2023-04-25T16:54:18.361Z,6.38
2023-04-25T16:56:20.085Z,5.97
2023-04-25T16:58:22.012Z,6.85
2023-04-25T17:00:23.909Z,7.57
2023-04-25T17:02:25.680Z,6.22
2023-04-25T17:04:27.669Z,6.25
2023-04-25T17:06:29.873Z,6.30
2023-04-25T17:08:31.483Z,5.63
2023-04-25T17:10:33.956Z,5.07
2023-04-25T17:12:35.829Z,4.93
2023-04-25T17:14:37.453Z,6.25
2023-04-25T17:16:39.702Z,8.73
2023-04-25T17:18:41.827Z,6.22
2023-04-25T17:20:43.488Z,3.58
2023-04-25T17:22:45.156Z,5.53
2023-04-25T17:24:46.732Z,4.88
2023-04-25T17:26:48.977Z,5.28
2023-04-25T17:28:51.227Z,4.22
2023-04-25T17:30:53.139Z,3.97
2023-04-25T17:32:54.823Z,4.22
2023-04-25T17:34:57.355Z,3.80
2023-04-25T17:36:59.043Z,4.10
2023-04-25T17:39:00.713Z,3.58
2023-04-25T17:41:02.746Z,3.70
2023-04-25T17:43:04.365Z,2.80
2023-04-25T17:45:07.850Z,4.03
2023-04-25T17:47:12.525Z,2.70
2023-04-25T17:49:14.166Z,3.47
2023-04-25T17:51:15.939Z,3.03
2023-04-25T17:53:18.049Z,2.40
2023-04-25T17:55:19.675Z,4.78
2023-04-25T17:57:22.808Z,3.53
2023-04-25T17:59:24.466Z,3.17
2023-04-25T18:01:26.158Z,3.70
2023-04-25T18:03:27.867Z,5.32
2023-04-25T18:05:31.169Z,3.47
2023-04-25T18:07:32.954Z,3.03
2023-04-25T18:09:34.908Z,3.85
2023-04-25T18:11:36.689Z,2.40
2023-04-25T18:13:38.722Z,3.10
2023-04-25T18:15:40.745Z,3.28
2023-04-25T18:17:42.702Z,3.75
2023-04-25T18:19:44.269Z,3.05
2023-04-25T18:21:45.984Z,3.60
2023-04-25T18:23:47.952Z,2.30
2023-04-25T18:25:52.051Z,3.28
2023-04-25T18:27:53.651Z,2.30
2023-04-25T18:29:55.263Z,2.00
2023-04-25T18:31:56.987Z,1.80
2023-04-25T18:33:58.798Z,1.95
2023-04-25T18:36:00.352Z,2.30
2023-04-25T18:38:02.547Z,2.42
2023-04-25T18:40:06.681Z,2.30
2023-04-25T18:42:08.622Z,1.98
2023-04-25T18:44:10.294Z,2.38
2023-04-25T18:46:12.093Z,2.30
2023-04-25T18:48:13.776Z,2.17
2023-04-25T18:50:15.924Z,2.20
2023-04-25T18:52:17.872Z,3.25
2023-04-25T18:54:19.464Z,2.17
2023-04-25T18:56:22.903Z,2.00
2023-04-25T18:58:24.553Z,3.55
2023-04-25T19:00:26.313Z,4.00
2023-04-25T19:02:28.087Z,2.92
2023-04-25T19:04:29.999Z,2.58
2023-04-25T19:06:32.791Z,3.00
2023-04-25T19:08:34.379Z,2.75
2023-04-25T19:10:36.783Z,5.60
2023-04-25T19:12:38.443Z,4.07
2023-04-25T19:14:40.555Z,2.67
2023-04-25T19:16:42.279Z,3.28
2023-04-25T19:18:44.651Z,4.38
2023-04-25T19:20:46.590Z,5.00
2023-04-25T19:22:48.533Z,3.00
2023-04-25T19:24:55.760Z,2.92
2023-04-25T19:27:10.599Z,3.58
2023-04-25T19:29:14.738Z,2.45
2023-04-25T19:31:16.806Z,2.28
2023-04-25T19:33:18.985Z,2.67
2023-04-25T19:35:20.590Z,5.22
2023-04-25T19:37:22.268Z,3.88
2023-04-25T19:39:23.931Z,2.95
2023-04-25T19:41:26.014Z,2.92
2023-04-25T19:43:27.714Z,4.28
2023-04-25T19:45:31.058Z,4.43
2023-04-25T19:47:33.106Z,2.83
2023-04-25T19:49:34.782Z,2.75
2023-04-25T19:51:37.244Z,4.45
2023-04-25T19:53:39.070Z,3.15
2023-04-25T19:55:41.301Z,3.13
2023-04-25T19:57:42.994Z,2.38
2023-04-25T19:59:48.114Z,2.58
2023-04-25T20:01:49.823Z,3.72
2023-04-25T20:03:51.878Z,4.65
2023-04-25T20:05:53.850Z,3.40
2023-04-25T20:07:55.499Z,2.90
2023-04-25T20:09:57.442Z,3.75
2023-04-25T20:11:59.029Z,2.42
2023-04-25T20:14:00.704Z,3.65
2023-04-25T20:16:02.891Z,4.00
2023-04-25T20:18:04.750Z,2.63
2023-04-25T20:20:06.931Z,2.05
2023-04-25T20:22:08.578Z,2.80
2023-04-25T20:24:11.464Z,2.90
2023-04-25T20:26:13.106Z,2.20
2023-04-25T20:28:14.725Z,3.25
2023-04-25T20:30:16.422Z,4.20
2023-04-25T20:32:18.016Z,2.75
2023-04-25T20:34:21.615Z,4.63
2023-04-25T20:36:23.195Z,2.60
2023-04-25T20:38:24.827Z,2.60
2023-04-25T20:40:26.812Z,3.38
2023-04-25T20:42:28.692Z,2.53
2023-04-25T20:44:30.544Z,1.73
2023-04-25T20:46:32.211Z,2.30
2023-04-25T20:48:33.808Z,2.50
2023-04-25T20:50:35.479Z,2.17
2023-04-25T20:52:38.686Z,2.65
2023-04-25T20:54:41.678Z,2.40
2023-04-25T20:56:43.397Z,2.70
2023-04-25T20:58:45.017Z,2.10
2023-04-25T21:00:47.699Z,2.88
2023-04-25T21:02:49.497Z,1.42
2023-04-25T21:04:51.901Z,1.42
2023-04-25T21:06:53.598Z,1.23
2023-04-25T21:08:55.173Z,1.55
2023-04-25T21:10:56.783Z,3.05
2023-04-25T21:12:58.469Z,6.10
2023-04-25T21:15:00.697Z,5.82
2023-04-25T21:17:02.384Z,8.20
2023-04-25T21:19:04.061Z,8.65
2023-04-25T21:21:06.370Z,10.55
2023-04-25T21:23:08.013Z,9.63
2023-04-25T21:25:10.372Z,8.57
2023-04-25T21:27:11.970Z,6.60
2023-04-25T21:29:13.519Z,6.57
2023-04-25T21:31:15.515Z,4.53
2023-04-25T21:33:17.187Z,9.55
2023-04-25T21:35:20.125Z,3.70
2023-04-25T21:37:21.797Z,6.23
2023-04-25T21:39:25.159Z,5.10
2023-04-25T21:41:26.823Z,2.47
2023-04-25T21:43:28.793Z,2.80
2023-04-25T21:45:31.073Z,2.45
2023-04-25T21:47:33.440Z,3.35
2023-04-25T21:49:35.020Z,2.80
2023-04-25T21:51:36.710Z,2.70
2023-04-25T21:53:38.738Z,3.20
2023-04-25T21:55:40.349Z,2.78
2023-04-25T21:57:42.092Z,4.90
2023-04-25T21:59:43.706Z,2.80
2023-04-25T22:01:46.502Z,3.28
2023-04-25T22:03:48.295Z,5.03
2023-04-25T22:05:50.032Z,3.65
2023-04-25T22:07:53.581Z,3.15
2023-04-25T22:09:55.992Z,4.60
2023-04-25T22:11:58.736Z,4.35
2023-04-25T22:14:01.245Z,3.28
2023-04-25T22:16:03.222Z,3.60
2023-04-25T22:18:05.864Z,5.13
2023-04-25T22:20:13.371Z,4.50
2023-04-25T22:22:14.957Z,3.65
2023-04-25T22:24:16.615Z,4.78
2023-04-25T22:26:18.809Z,3.72
2023-04-25T22:28:20.476Z,3.28
2023-04-25T22:30:22.790Z,3.55
2023-04-25T22:32:25.913Z,3.88
2023-04-25T22:34:27.608Z,3.53
2023-04-25T22:36:29.627Z,4.63
2023-04-25T22:38:31.425Z,3.80
2023-04-25T22:40:33.135Z,4.80
2023-04-25T22:42:42.322Z,3.78
2023-04-25T22:44:44.013Z,4.70
2023-04-25T22:46:45.630Z,5.22
2023-04-25T22:48:48.111Z,6.05
2023-04-25T22:50:51.535Z,5.60
2023-04-25T22:52:53.198Z,3.95
2023-04-25T22:54:54.970Z,5.57
2023-04-25T22:56:58.068Z,6.57
2023-04-25T22:58:59.769Z,5.15
2023-04-25T23:01:01.323Z,6.47
2023-04-25T23:03:04.035Z,7.40
2023-04-25T23:05:07.124Z,10.05
2023-04-25T23:07:08.958Z,5.17
2023-04-25T23:09:12.417Z,7.90
2023-04-25T23:11:14.246Z,8.55
2023-04-25T23:13:15.826Z,8.10
2023-04-25T23:15:17.463Z,8.02
2023-04-25T23:17:20.390Z,5.22
2023-04-25T23:19:22.126Z,7.23
2023-04-25T23:21:23.769Z,7.28
2023-04-25T23:23:25.460Z,6.97
2023-04-25T23:25:27.129Z,4.75
2023-04-25T23:27:28.704Z,5.10
2023-04-25T23:29:31.573Z,5.13
2023-04-25T23:31:33.130Z,6.32
2023-04-25T23:33:35.048Z,3.85
2023-04-25T23:35:37.140Z,4.80
2023-04-25T23:37:40.252Z,4.07
2023-04-25T23:39:47.790Z,9.85
2023-04-25T23:41:49.461Z,5.72
2023-04-25T23:43:51.166Z,4.80
2023-04-25T23:45:54.290Z,3.55
2023-04-25T23:47:56.133Z,4.45
2023-04-25T23:49:58.143Z,4.20
2023-04-25T23:51:59.795Z,5.65
2023-04-25T23:54:02.443Z,3.85
2023-04-25T23:56:05.419Z,4.50
2023-04-25T23:58:07.775Z,5.20
